Time;durP1;ratioP1;P1;durP2;ratioP2;P2;SDS_P1;SDS_P2;PMS_P1;PMS_P2;Temp;Humidity;BMP_temperature;BMP_pressure;BME280_temperature;BME280_humidity;BME280_pressure;Samples;Min_cycle;Max_cycle;Signal;HPM_P1;HPM_P2
2022/05/22 00:01:54;;;;;;;4.28;2.08;;;;;;;16.76;63.62;99878.94;6124231;23;20016;-79
2022/05/22 00:04:21;;;;;;;5.18;1.92;;;;;;;16.66;63.77;99871.13;6125250;23;20018;-79
2022/05/22 00:06:46;;;;;;;5.90;2.08;;;;;;;16.73;63.13;99874.31;6098861;23;20018;-79
2022/05/22 00:09:12;;;;;;;2.95;1.90;;;;;;;16.70;62.72;99864.06;6124639;23;20081;-79
2022/05/22 00:11:37;;;;;;;2.78;1.95;;;;;;;16.70;63.28;99864.06;6123828;23;20048;-79
2022/05/22 00:14:03;;;;;;;3.67;2.08;;;;;;;16.71;63.12;99864.84;6125995;23;20016;-89
2022/05/22 00:16:37;;;;;;;4.28;1.98;;;;;;;16.66;63.24;99862.75;6124566;23;20555;-89
2022/05/22 00:19:04;;;;;;;;;;;;;;;16.67;62.29;99870.63;6125441;23;20445;-89
2022/05/22 00:21:30;;;;;;;3.08;1.88;;;;;;;16.64;62.54;99871.59;6124431;23;19916;-89
2022/05/22 00:23:56;;;;;;;2.90;1.80;;;;;;;16.65;62.89;99866.78;6124268;23;20018;-89
2022/05/22 00:26:21;;;;;;;3.83;2.00;;;;;;;16.64;63.17;99877.22;6125091;23;20513;-89
2022/05/22 00:28:47;;;;;;;2.00;1.80;;;;;;;16.57;63.46;99869.19;6122590;23;20424;-88
2022/05/22 00:31:13;;;;;;;3.90;1.92;;;;;;;16.48;63.24;99866.44;6124383;23;20523;-89
2022/05/22 00:33:39;;;;;;;3.35;2.00;;;;;;;16.48;62.55;99869.25;6123580;23;20040;-90
2022/05/22 00:36:04;;;;;;;3.55;1.98;;;;;;;16.44;63.25;99879.88;6122782;23;20009;-90
2022/05/22 00:38:30;;;;;;;4.57;1.92;;;;;;;16.46;63.27;99888.53;6122905;23;20417;-90
2022/05/22 00:40:55;;;;;;;2.65;1.77;;;;;;;16.38;63.56;99881.78;6122656;23;20010;-90
2022/05/22 00:43:42;;;;;;;2.50;2.00;;;;;;;16.42;62.76;99882.38;6124244;23;20025;-90
2022/05/22 00:46:11;;;;;;;3.70;2.10;;;;;;;16.42;64.47;99881.63;6123100;23;20433;-89
2022/05/22 00:48:38;;;;;;;4.10;2.13;;;;;;;16.33;65.18;99888.06;6097806;23;20021;-90
2022/05/22 00:51:10;;;;;;;3.78;2.00;;;;;;;16.26;66.20;99888.41;6122413;23;20041;-89
2022/05/22 00:53:43;;;;;;;5.78;2.28;;;;;;;16.21;66.97;99894.69;6124253;23;20448;-90
2022/05/22 00:56:11;;;;;;;3.58;2.25;;;;;;;16.04;67.58;99885.19;6098153;23;20543;-89
2022/05/22 00:58:37;;;;;;;6.72;2.13;;;;;;;15.98;68.35;99893.47;6124358;23;20010;-90
2022/05/22 01:03:39;;;;;;;4.07;2.13;;;;;;;15.73;68.73;99877.19;6137846;23;20351;-90
2022/05/22 01:06:08;;;;;;;4.30;2.20;;;;;;;15.77;67.80;99900.16;6104067;23;20009;-91
2022/05/22 01:08:35;;;;;;;4.13;2.05;;;;;;;15.78;67.85;99893.28;6103575;23;20009;-90
2022/05/22 01:11:14;;;;;;;4.88;2.13;;;;;;;15.74;67.29;99896.28;6103815;23;20028;-90
2022/05/22 01:13:43;;;;;;;2.55;2.00;;;;;;;15.72;66.62;99892.41;6103230;23;20013;-90
2022/05/22 01:16:09;;;;;;;3.60;2.03;;;;;;;15.70;66.51;99892.88;6103317;23;20009;-90
2022/05/22 01:18:43;;;;;;;3.28;2.33;;;;;;;15.71;66.90;99891.63;6103448;23;20020;-90
2022/05/22 01:21:14;;;;;;;4.20;2.33;;;;;;;15.66;67.24;99895.06;6102954;23;20379;-95
2022/05/22 01:23:39;;;;;;;3.05;1.90;;;;;;;15.65;66.65;99887.19;6127283;23;20024;-95
2022/05/22 01:26:12;;;;;;;3.83;1.90;;;;;;;15.62;66.84;99888.88;6129578;23;20032;-93
2022/05/22 01:28:38;;;;;;;2.83;2.30;;;;;;;15.59;66.28;99895.44;6103918;23;20013;-93
2022/05/22 01:31:10;;;;;;;3.65;2.35;;;;;;;15.56;66.52;99890.81;6104857;23;20009;-93
2022/05/22 01:33:37;;;;;;;4.03;1.90;;;;;;;15.54;66.95;99886.91;6128079;23;20040;-95
2022/05/22 01:36:05;;;;;;;3.80;2.10;;;;;;;15.45;67.20;99882.13;6128722;23;20014;-94
2022/05/22 01:38:31;;;;;;;4.15;2.03;;;;;;;15.50;67.15;99892.69;6105125;23;20040;-94
2022/05/22 01:40:57;;;;;;;3.80;2.03;;;;;;;15.45;67.63;99890.50;6105459;23;20065;-89
2022/05/22 01:43:40;;;;;;;3.15;1.88;;;;;;;15.39;67.33;99884.03;6132439;23;20445;-90
2022/05/22 01:46:14;;;;;;;3.55;2.30;;;;;;;15.26;67.70;99872.28;6128609;23;20013;-91
2022/05/22 01:48:48;;;;;;;4.28;2.20;;;;;;;15.27;68.15;99882.22;6105492;23;20013;-91
2022/05/22 01:51:19;;;;;;;3.22;2.20;;;;;;;15.28;68.03;99880.97;6128121;23;20474;-90
2022/05/22 01:53:45;;;;;;;3.10;2.10;;;;;;;15.22;68.29;99894.03;6127415;23;20341;-90
2022/05/22 01:56:13;;;;;;;4.50;2.10;;;;;;;15.12;68.29;99895.31;6127376;23;20080;-90
2022/05/22 01:58:39;;;;;;;4.47;2.00;;;;;;;15.19;68.45;99900.56;6103003;23;20017;-90
2022/05/22 02:01:08;;;;;;;3.22;2.45;;;;;;;15.14;68.58;99890.03;6103522;23;20045;-91
2022/05/22 02:03:33;;;;;;;4.25;2.38;;;;;;;15.01;68.45;99887.44;6120237;23;20021;-89
2022/05/22 02:05:59;;;;;;;2.78;2.22;;;;;;;14.99;68.31;99889.16;6097601;23;20042;-90
2022/05/22 02:08:26;;;;;;;3.70;2.20;;;;;;;14.97;68.28;99886.81;6123409;23;20010;-91
2022/05/22 02:10:59;;;;;;;3.53;2.30;;;;;;;15.07;69.27;99907.91;6096916;23;20021;-91
2022/05/22 02:13:27;;;;;;;;;;;;;;;15.04;69.49;99905.28;6073917;23;20022;-91
2022/05/22 02:15:52;;;;;;;2.70;2.20;;;;;;;14.85;70.13;99894.16;6073257;23;19913;-91
2022/05/22 02:18:18;;;;;;;6.43;2.33;;;;;;;14.84;69.90;99900.97;6096890;23;20112;-93
2022/05/22 02:20:44;;;;;;;5.57;2.30;;;;;;;14.78;70.80;99900.06;6122383;23;20085;-90
2022/05/22 02:23:11;;;;;;;3.45;2.30;;;;;;;14.75;70.94;99911.41;6097706;23;20136;-89
2022/05/22 02:25:38;;;;;;;3.22;2.22;;;;;;;14.68;70.88;99895.00;6074107;23;20100;-90
2022/05/22 02:28:07;;;;;;;4.38;2.30;;;;;;;14.63;71.29;99890.81;6097603;23;20037;-90
2022/05/22 02:30:37;;;;;;;2.20;2.00;;;;;;;14.59;71.44;99895.00;6073955;23;20096;-89
2022/05/22 02:33:04;;;;;;;4.22;2.30;;;;;;;14.66;70.71;99903.81;6097848;23;20024;-90
2022/05/22 02:35:37;;;;;;;4.03;2.50;;;;;;;14.59;70.98;99892.22;6076922;23;20010;-92
2022/05/22 02:38:10;;;;;;;3.25;2.10;;;;;;;14.58;70.98;99885.06;6098481;23;20041;-92
2022/05/22 02:40:44;;;;;;;4.90;2.83;;;;;;;14.61;70.82;99893.28;6076986;23;20010;-91
2022/05/22 02:43:10;;;;;;;5.43;2.42;;;;;;;14.59;70.54;99892.22;6097522;23;20029;-91
2022/05/22 02:45:37;;;;;;;4.90;2.30;;;;;;;14.47;70.75;99879.97;6098049;23;20032;-92
2022/05/22 02:48:09;;;;;;;4.85;2.30;;;;;;;14.59;70.85;99898.56;6075295;23;20041;-91
2022/05/22 02:50:37;;;;;;;2.85;2.20;;;;;;;14.63;70.33;99901.19;6097603;23;20021;-91
2022/05/22 02:53:09;;;;;;;4.13;2.20;;;;;;;14.64;70.19;99903.50;6098832;23;20014;-92
2022/05/22 02:56:12;;;;;;;2.88;2.20;;;;;;;14.63;69.71;99904.78;6121994;23;20022;-91
2022/05/22 02:59:00;;;;;;;5.80;2.40;;;;;;;14.61;70.20;99915.59;6068401;23;20475;-89
2022/05/22 03:01:31;;;;;;;4.78;2.17;;;;;;;14.55;71.80;99911.13;6075164;23;20068;-90
2022/05/22 03:03:57;;;;;;;2.60;2.22;;;;;;;14.45;73.66;99915.94;6097461;23;20404;-90
2022/05/22 03:06:38;;;;;;;4.40;2.47;;;;;;;14.25;75.23;99905.22;6075563;23;20042;-90
2022/05/22 03:09:15;;;;;;;5.50;2.50;;;;;;;14.11;76.83;99907.88;6078641;23;20013;-91
2022/05/22 10:48:10;;;;;;;6.80;3.47;;;;;;;25.17;36.36;99792.91;5081082;27;20401;-86
2022/05/22 10:50:36;;;;;;;5.97;3.17;;;;;;;25.34;36.55;99787.69;5083741;28;20044;-87
2022/05/22 10:53:01;;;;;;;3.85;2.95;;;;;;;25.48;36.78;99794.13;5072021;28;20090;-86
2022/05/22 10:55:37;;;;;;;4.90;2.83;;;;;;;25.60;36.00;99806.81;5067091;28;20045;-87
2022/05/22 10:58:20;;;;;;;3.95;2.90;;;;;;;25.91;35.44;99814.47;5067546;28;20476;-87
2022/05/22 11:00:55;;;;;;;;;;;;;;;25.88;36.35;99809.13;5067609;28;20112;-87
2022/05/22 11:03:26;;;;;;;5.32;3.60;;;;;;;25.90;35.19;99798.72;5065813;28;20014;-87
2022/05/22 11:05:52;;;;;;;3.50;3.00;;;;;;;25.85;35.34;99801.66;5064747;28;20041;-87
2022/05/22 11:08:34;;;;;;;5.03;3.40;;;;;;;25.47;35.78;99792.63;5065433;28;20051;-86
2022/05/22 11:11:18;;;;;;;4.80;3.42;;;;;;;25.16;35.68;99787.78;5066989;28;20037;-87
2022/05/22 11:13:45;;;;;;;7.07;3.33;;;;;;;25.05;37.73;99774.56;5065580;28;20029;-86
2022/05/22 11:16:13;;;;;;;5.85;2.80;;;;;;;25.15;36.83;99786.28;5067074;28;20616;-86
2022/05/22 11:18:38;;;;;;;4.25;3.28;;;;;;;25.20;36.53;99776.88;5066965;28;20041;-86
2022/05/22 11:21:25;;;;;;;5.13;3.30;;;;;;;25.43;36.61;99769.47;5067233;28;20021;-87
2022/05/22 11:24:06;;;;;;;5.55;4.10;;;;;;;25.47;37.28;99759.31;5066058;28;20033;-86
2022/05/22 11:26:56;;;;;;;4.85;3.05;;;;;;;25.73;35.87;99755.69;5066248;28;20124;-86
2022/05/22 11:29:40;;;;;;;5.22;3.30;;;;;;;25.81;36.07;99759.38;5066758;28;20592;-87
2022/05/22 11:32:08;;;;;;;5.63;3.08;;;;;;;25.98;36.02;99750.50;5067129;28;20040;-87
2022/05/22 11:34:53;;;;;;;4.43;3.15;;;;;;;25.83;35.87;99745.41;5066507;28;20127;-87
2022/05/22 11:37:37;;;;;;;4.85;3.13;;;;;;;25.81;35.31;99739.50;5066827;28;20484;-87
2022/05/22 11:40:46;;;;;;;7.45;2.95;;;;;;;25.93;38.56;99735.09;5065550;28;20458;-87
2022/05/22 11:43:56;;;;;;;4.40;3.42;;;;;;;25.87;36.16;99745.84;5065098;28;20053;-87
2022/05/22 11:46:43;;;;;;;5.80;3.00;;;;;;;26.24;36.05;99735.47;5064414;28;20132;-87
2022/05/22 11:49:33;;;;;;;6.00;3.22;;;;;;;26.78;35.70;99731.78;5066781;28;20041;-87
2022/05/22 11:52:53;;;;;;;6.03;3.30;;;;;;;26.84;34.70;99721.03;5066344;28;20025;-87
2022/05/22 11:55:26;;;;;;;5.85;3.42;;;;;;;26.84;34.22;99716.13;5066174;28;20037;-88
2022/05/22 11:58:10;;;;;;;5.85;3.08;;;;;;;26.71;34.62;99706.88;5060599;28;20817;-87
2022/05/22 12:01:03;;;;;;;5.60;3.05;;;;;;;26.84;35.25;99706.81;5051459;28;20052;-88
2022/05/22 12:03:48;;;;;;;;;;;;;;;26.76;34.63;99703.13;5053371;28;20041;-87
2022/05/22 12:06:26;;;;;;;4.65;3.00;;;;;;;26.90;34.88;99693.19;5051662;28;20288;-87
2022/05/22 12:09:01;;;;;;;7.50;3.30;;;;;;;26.79;34.29;99690.63;5052371;28;20745;-87
2022/05/22 12:11:33;;;;;;;6.75;3.30;;;;;;;26.95;34.88;99685.81;5051738;28;20469;-87
2022/05/22 12:14:40;;;;;;;6.15;3.58;;;;;;;26.69;34.34;99687.50;5051495;28;20051;-87
2022/05/22 12:17:14;;;;;;;4.82;3.35;;;;;;;26.32;34.87;99685.13;5051608;28;20048;-87
2022/05/22 12:20:01;;;;;;;4.38;3.13;;;;;;;26.09;36.00;99686.94;5063429;28;20049;-86
2022/05/22 12:25:20;;;;;;;9.07;3.60;;;;;;;25.94;36.61;99676.19;5051394;28;20067;-86
2022/05/22 12:27:46;;;;;;;5.25;3.10;;;;;;;25.66;36.47;99656.94;5051454;28;20484;-86
2022/05/22 12:30:29;;;;;;;7.40;5.18;;;;;;;25.42;37.36;99657.19;5051168;28;20036;-85
2022/05/22 12:33:00;;;;;;;6.85;5.68;;;;;;;25.17;38.24;99667.28;5051055;28;20564;-86
2022/05/22 12:35:27;;;;;;;5.85;3.40;;;;;;;24.81;37.32;99659.19;5051385;28;20504;-86
2022/05/22 12:37:56;;;;;;;4.43;3.60;;;;;;;24.75;37.57;99638.66;5051231;28;20040;-86
2022/05/22 12:40:33;;;;;;;5.00;3.65;;;;;;;24.52;37.88;99646.06;5050955;28;20120;-86
2022/05/22 12:43:03;;;;;;;4.93;3.58;;;;;;;24.73;38.49;99641.28;5052212;28;20068;-86
2022/05/22 12:45:37;;;;;;;6.15;3.53;;;;;;;25.18;37.48;99643.25;5052033;28;20025;-86
2022/05/22 12:48:09;;;;;;;4.82;3.10;;;;;;;25.13;37.04;99635.63;5034928;28;20033;-86
2022/05/22 12:50:44;;;;;;;4.90;3.30;;;;;;;25.24;37.42;99626.88;5053237;28;20106;-87
2022/05/22 12:53:30;;;;;;;7.53;3.83;;;;;;;25.53;37.84;99614.38;5051658;28;20029;-87
2022/05/22 12:55:57;;;;;;;6.70;3.60;;;;;;;26.07;37.41;99621.38;5014248;28;20126;-86
2022/05/22 12:58:38;;;;;;;6.90;4.70;;;;;;;26.63;36.38;99624.31;5048572;28;20029;-86
2022/05/22 13:01:22;;;;;;;5.82;3.50;;;;;;;26.52;34.86;99613.25;5048853;28;20035;-86
2022/05/22 13:03:50;;;;;;;6.28;3.35;;;;;;;26.43;34.71;99619.44;5050751;28;20099;-86
2022/05/22 13:06:27;;;;;;;4.75;3.10;;;;;;;25.62;36.40;99605.41;5051735;28;20029;-86
2022/05/22 13:09:11;;;;;;;4.10;3.30;;;;;;;24.77;36.84;99607.69;5050283;28;20044;-86
2022/05/22 13:11:54;;;;;;;5.53;4.13;;;;;;;24.58;37.89;99609.88;5050229;28;20098;-85
2022/05/22 13:14:52;;;;;;;6.80;3.47;;;;;;;24.04;39.05;99604.63;5050589;28;20040;-85
2022/05/22 13:17:53;;;;;;;4.10;3.50;;;;;;;23.57;39.88;99604.34;5050045;28;20543;-85
2022/05/22 13:20:37;;;;;;;5.13;3.58;;;;;;;23.30;40.56;99605.44;5046091;28;20048;-85
2022/05/22 13:23:08;;;;;;;5.55;3.50;;;;;;;23.61;40.62;99590.63;5051191;28;20573;-85
2022/05/22 13:25:42;;;;;;;5.28;3.50;;;;;;;23.72;40.10;99596.13;5051545;28;20048;-85
2022/05/22 13:28:37;;;;;;;5.60;3.50;;;;;;;24.25;40.27;99587.78;5051502;28;20036;-86
2022/05/22 13:31:06;;;;;;;5.30;3.33;;;;;;;24.84;38.40;99590.00;5051374;28;20037;-85
2022/05/22 13:34:03;;;;;;;5.65;3.53;;;;;;;25.12;38.05;99580.94;5051227;28;20037;-85
2022/05/22 13:36:33;;;;;;;5.53;3.60;;;;;;;25.65;38.53;99575.88;5050475;28;20108;-85
2022/05/22 13:39:06;;;;;;;5.35;3.97;;;;;;;25.90;37.28;99584.84;5051644;28;20530;-86
2022/05/22 13:42:01;;;;;;;6.07;3.97;;;;;;;26.19;37.56;99577.13;5049823;28;20127;-86
2022/05/22 13:44:50;;;;;;;5.85;3.67;;;;;;;26.34;36.17;99568.75;5051258;28;20044;-86
2022/05/22 13:47:46;;;;;;;7.47;4.03;;;;;;;26.27;36.05;99563.78;5049797;28;20068;-86
2022/05/22 13:54:03;;;;;;;5.20;3.60;;;;;;;25.91;36.42;99553.03;5051580;28;20033;-85
2022/05/22 13:56:50;;;;;;;4.28;3.47;;;;;;;26.09;36.45;99561.88;5050870;28;20036;-86
2022/05/22 13:59:22;;;;;;;5.50;3.45;;;;;;;26.34;37.54;99560.22;5051237;28;20514;-86
2022/05/22 14:01:48;;;;;;;5.47;3.70;;;;;;;26.56;36.51;99559.63;5038704;28;20235;-86
2022/05/22 14:04:33;;;;;;;5.70;3.60;;;;;;;26.35;36.12;99551.13;5051387;28;20033;-85
2022/05/22 14:07:05;;;;;;;6.13;3.53;;;;;;;25.70;36.50;99560.78;5033643;28;20095;-85
2022/05/22 14:09:35;;;;;;;4.72;3.40;;;;;;;25.69;37.08;99549.97;5053148;28;20068;-86
2022/05/22 14:12:00;;;;;;;4.10;3.65;;;;;;;25.82;36.38;99547.06;5056480;28;20479;-85
2022/05/22 14:14:40;;;;;;;4.25;3.20;;;;;;;25.72;37.07;99535.41;5059124;28;20033;-85
2022/05/22 14:17:09;;;;;;;6.68;3.90;;;;;;;26.21;37.21;99546.09;5051092;28;20123;-86
2022/05/22 14:19:40;;;;;;;5.35;3.60;;;;;;;26.55;36.31;99541.03;5045604;28;20049;-86
2022/05/22 14:22:12;;;;;;;3.70;3.30;;;;;;;26.71;35.65;99542.63;5048426;28;20037;-86
2022/05/22 14:24:54;;;;;;;4.35;3.67;;;;;;;26.70;35.95;99541.09;5046216;28;20068;-85
2022/05/22 14:27:32;;;;;;;3.53;3.20;;;;;;;26.83;35.14;99532.44;5045830;28;20125;-86
2022/05/22 14:30:06;;;;;;;5.97;3.53;;;;;;;26.92;35.89;99538.97;5029022;28;20048;-85
2022/05/22 14:32:45;;;;;;;6.78;3.40;;;;;;;26.84;36.83;99534.00;5042632;28;20039;-85
2022/05/22 14:35:15;;;;;;;4.90;3.40;;;;;;;27.28;36.64;99531.13;5052504;28;20045;-85
2022/05/22 14:37:41;;;;;;;4.95;3.58;;;;;;;27.57;36.15;99524.00;5072972;28;20511;-85
2022/05/22 14:40:37;;;;;;;7.78;6.13;;;;;;;27.31;34.36;99529.97;5072749;28;20082;-83
2022/05/22 14:43:03;;;;;;;5.80;4.20;;;;;;;27.13;35.15;99539.63;5075524;28;20036;-83
2022/05/22 14:45:30;;;;;;;5.25;3.50;;;;;;;27.16;35.14;99527.84;5081807;28;20050;-83
2022/05/22 14:47:57;;;;;;;5.57;3.60;;;;;;;26.66;35.56;99525.72;5056025;28;20145;-83
2022/05/22 14:50:24;;;;;;;5.70;3.85;;;;;;;26.31;36.41;99518.69;5090797;28;20029;-83
2022/05/22 14:53:03;;;;;;;4.95;3.25;;;;;;;25.75;37.17;99517.28;5103639;28;20031;-82
2022/05/22 14:55:42;;;;;;;4.25;2.97;;;;;;;25.01;38.50;99508.16;5092857;28;20039;-82
2022/05/22 14:58:07;;;;;;;5.35;3.25;;;;;;;24.85;39.51;99514.19;5076089;28;20047;-82
2022/05/22 15:00:52;;;;;;;5.70;3.58;;;;;;;25.32;39.57;99514.16;5101069;28;20029;-83
2022/05/22 15:03:24;;;;;;;4.70;3.40;;;;;;;24.94;39.43;99508.84;5068638;28;20042;-83
2022/05/22 15:05:55;;;;;;;6.50;3.15;;;;;;;24.47;40.56;99488.16;5071522;28;20028;-82
2022/05/22 15:08:58;;;;;;;4.22;3.20;;;;;;;24.35;40.40;99492.50;5075676;28;20027;-82
2022/05/22 15:11:24;;;;;;;5.80;3.65;;;;;;;24.34;40.89;99499.50;5091406;28;20490;-83
2022/05/22 15:14:00;;;;;;;5.85;3.58;;;;;;;24.30;40.86;99497.00;5110663;28;20036;-82
2022/05/22 15:16:37;;;;;;;5.15;3.10;;;;;;;24.40;41.51;99494.47;5089951;28;20036;-83
2022/05/22 15:28:21;;;;;;;6.90;5.00;;;;;;;24.56;40.74;99484.88;5099249;28;20100;-83
2022/05/22 15:30:54;;;;;;;5.75;3.65;;;;;;;24.83;40.46;99486.34;5110033;28;20035;-83
2022/05/22 15:33:25;;;;;;;5.75;3.50;;;;;;;25.07;40.45;99493.88;5111902;28;20031;-82
2022/05/22 15:35:57;;;;;;;5.28;3.55;;;;;;;25.00;39.92;99497.34;5077323;28;20068;-82
2022/05/22 15:38:33;;;;;;;5.20;3.47;;;;;;;24.98;40.00;99485.81;5114299;28;20031;-83
2022/05/22 15:41:15;;;;;;;5.47;3.50;;;;;;;25.36;39.56;99489.03;5087117;28;20119;-83
2022/05/22 15:43:49;;;;;;;4.05;3.13;;;;;;;25.46;39.38;99482.34;5056294;28;20522;-82
2022/05/22 15:46:21;;;;;;;3.47;3.00;;;;;;;25.13;39.86;99485.22;5055137;28;20166;-83
2022/05/22 15:51:36;;;;;;;4.75;4.05;;;;;;;25.55;41.10;99481.13;5075048;28;20032;-82
2022/05/22 15:54:02;;;;;;;5.80;3.70;;;;;;;25.57;39.48;99489.06;5092229;28;20044;-83
2022/05/22 15:56:29;;;;;;;4.80;3.53;;;;;;;25.64;38.47;99488.41;5092315;28;20047;-82
2022/05/22 15:58:55;;;;;;;4.88;3.40;;;;;;;25.36;39.19;99489.81;5077617;28;20043;-83
2022/05/22 16:01:21;;;;;;;5.45;3.40;;;;;;;24.78;40.05;99484.41;5061657;28;20105;-83
2022/05/22 16:03:56;;;;;;;5.03;3.30;;;;;;;25.00;40.00;99486.78;5095618;28;20619;-82
2022/05/22 16:06:21;;;;;;;4.13;3.50;;;;;;;24.94;40.83;99486.16;5113591;28;20040;-83
2022/05/22 16:08:48;;;;;;;5.53;3.55;;;;;;;24.56;40.86;99491.31;5113288;28;20024;-82
2022/05/22 16:11:14;;;;;;;6.38;3.63;;;;;;;24.23;42.20;99491.22;5095199;28;20152;-82
2022/05/22 16:13:40;;;;;;;6.65;3.67;;;;;;;24.00;42.73;99497.28;5095153;28;20051;-82
2022/05/22 16:16:20;;;;;;;5.30;3.70;;;;;;;24.02;42.20;99499.59;5096511;28;20098;-82
2022/05/22 16:18:46;;;;;;;5.93;4.05;;;;;;;24.00;42.52;99508.63;5093591;28;20089;-82
2022/05/22 16:21:14;;;;;;;4.93;4.00;;;;;;;23.89;42.80;99508.06;5093140;28;20095;-82
2022/05/22 16:23:40;;;;;;;8.27;7.32;;;;;;;23.79;43.10;99509.75;5074954;28;20036;-82
2022/05/22 16:26:07;;;;;;;6.97;3.75;;;;;;;23.70;43.48;99513.75;5091658;28;20028;-83
2022/05/22 16:28:42;;;;;;;6.32;3.85;;;;;;;23.62;43.67;99507.22;5093354;28;20035;-82
2022/05/22 16:31:27;;;;;;;4.78;3.65;;;;;;;23.50;44.84;99505.84;5086640;28;20024;-82
2022/05/22 16:33:52;;;;;;;5.38;4.00;;;;;;;23.44;42.95;99508.03;5072684;28;20040;-82
2022/05/22 16:36:37;;;;;;;6.63;3.20;;;;;;;23.49;44.05;99510.00;5072597;28;20025;-82
2022/05/22 16:39:03;;;;;;;6.90;3.75;;;;;;;23.27;44.93;99510.31;5072256;28;20127;-82
2022/05/22 16:41:29;;;;;;;5.22;3.55;;;;;;;23.30;43.69;99507.16;5048950;28;20111;-82
2022/05/22 16:43:54;;;;;;;3.63;3.15;;;;;;;23.30;42.87;99503.56;5072383;28;20112;-82
2022/05/22 16:46:22;;;;;;;6.63;3.20;;;;;;;23.03;42.61;99508.34;5075972;28;20071;-82
2022/05/22 16:54:37;;;;;;;7.18;3.20;;;;;;;22.80;43.88;99507.91;5092380;28;20487;-82
2022/05/22 16:57:03;;;;;;;4.95;3.15;;;;;;;22.77;43.39;99508.94;5092447;28;20035;-82
2022/05/22 16:59:28;;;;;;;5.30;3.20;;;;;;;22.72;43.11;99506.97;5092739;28;20032;-82
2022/05/22 17:01:54;;;;;;;5.60;3.30;;;;;;;22.71;43.51;99516.75;5073781;28;20032;-82
2022/05/22 17:04:21;;;;;;;6.80;3.40;;;;;;;22.65;43.50;99507.53;5057297;28;20086;-82
2022/05/22 17:07:02;;;;;;;4.70;3.85;;;;;;;22.58;44.09;99502.50;5073581;28;20024;-83
2022/05/22 17:09:42;;;;;;;8.05;3.80;;;;;;;22.50;44.96;99515.69;5074335;28;20032;-83
2022/05/22 17:12:11;;;;;;;5.80;4.07;;;;;;;22.52;44.90;99513.13;5083166;28;20047;-83
2022/05/22 17:14:53;;;;;;;4.90;3.72;;;;;;;22.47;44.80;99516.75;5089249;28;20040;-83
2022/05/22 17:17:19;;;;;;;5.82;3.88;;;;;;;22.42;45.01;99523.22;5092319;28;20550;-83
2022/05/22 17:19:46;;;;;;;6.68;3.33;;;;;;;22.40;45.28;99520.19;5074360;28;20443;-83
2022/05/22 17:22:20;;;;;;;6.40;3.10;;;;;;;22.20;45.03;99524.25;5074080;28;20071;-83
2022/05/22 17:25:07;;;;;;;5.50;3.50;;;;;;;22.09;45.55;99513.81;5091851;28;20043;-83
2022/05/22 17:27:39;;;;;;;4.72;3.35;;;;;;;22.00;46.18;99511.34;5089244;28;20118;-83
2022/05/22 17:30:06;;;;;;;6.30;3.63;;;;;;;21.84;46.46;99504.53;5091583;28;20510;-83
2022/05/22 17:32:32;;;;;;;5.20;3.38;;;;;;;21.78;46.45;99505.88;5072868;28;20040;-83
2022/05/22 17:35:10;;;;;;;5.00;3.10;;;;;;;21.70;46.69;99502.13;5091899;28;20032;-83
2022/05/22 17:37:38;;;;;;;4.55;3.00;;;;;;;21.58;46.24;99500.69;5073496;28;20044;-83
2022/05/22 17:40:08;;;;;;;5.32;3.00;;;;;;;21.57;46.79;99499.13;5088750;28;20404;-83
2022/05/22 17:42:34;;;;;;;5.15;3.50;;;;;;;21.52;47.02;99494.31;5069038;28;20646;-83
2022/05/22 17:45:18;;;;;;;8.75;7.07;;;;;;;21.49;47.08;99504.59;5070887;28;20040;-83
2022/05/22 17:47:43;;;;;;;10.82;8.35;;;;;;;21.44;47.21;99505.41;5052677;28;20048;-83
2022/05/22 17:50:11;;;;;;;9.25;6.82;;;;;;;21.37;47.57;99500.31;5071876;28;20028;-83
2022/05/22 17:52:39;;;;;;;13.82;12.07;;;;;;;21.29;47.43;99508.59;5070871;28;20403;-83
2022/05/22 17:55:06;;;;;;;7.00;4.88;;;;;;;21.22;47.99;99511.97;5069507;28;20094;-83
2022/05/22 17:57:42;;;;;;;3.80;3.03;;;;;;;21.16;47.77;99514.06;5052755;28;20024;-83
2022/05/22 18:00:08;;;;;;;5.47;3.20;;;;;;;21.02;48.11;99506.69;5075157;28;20154;-86
2022/05/22 18:02:42;;;;;;;3.78;3.00;;;;;;;21.03;48.38;99508.22;5059957;28;20510;-84
2022/05/22 18:05:09;;;;;;;6.20;3.17;;;;;;;20.97;48.44;99512.34;5096436;28;20093;-86
2022/05/22 18:07:35;;;;;;;4.95;3.08;;;;;;;20.92;47.65;99511.09;5080595;28;20040;-85
2022/05/22 18:10:04;;;;;;;7.50;2.90;;;;;;;20.90;47.31;99502.41;5054358;28;20039;-87
2022/05/22 18:17:59;;;;;;;5.22;2.85;;;;;;;20.46;47.56;99506.94;5073589;28;20042;-84
2022/05/22 18:20:26;;;;;;;5.10;3.15;;;;;;;20.53;47.45;99524.59;5062516;28;20033;-83
2022/05/22 18:22:52;;;;;;;7.03;4.22;;;;;;;20.39;46.87;99526.44;5082615;28;20032;-83
2022/05/22 18:25:28;;;;;;;7.78;4.13;;;;;;;20.41;47.29;99523.88;5076986;28;20453;-84
2022/05/22 18:28:15;;;;;;;6.15;3.75;;;;;;;20.27;46.89;99525.69;5039655;28;20067;-83
2022/05/22 18:30:51;;;;;;;5.45;3.78;;;;;;;20.13;46.69;99520.34;5082952;28;20542;-82
2022/05/22 18:33:17;;;;;;;5.28;3.10;;;;;;;20.16;46.98;99531.34;5051555;28;20039;-83
2022/05/22 18:35:44;;;;;;;4.68;3.25;;;;;;;20.19;46.47;99526.72;5051910;28;20458;-84
2022/05/22 18:38:10;;;;;;;5.95;2.83;;;;;;;20.24;47.00;99540.78;5053292;28;20060;-83
2022/05/22 18:40:36;;;;;;;3.90;3.00;;;;;;;20.23;46.47;99539.25;5071702;28;20043;-83
2022/05/22 18:43:06;;;;;;;5.38;3.00;;;;;;;20.19;46.82;99540.78;5057596;28;20441;-83
2022/05/22 18:45:33;;;;;;;4.22;2.90;;;;;;;20.16;46.19;99547.47;5070897;28;20464;-84
2022/05/22 18:47:59;;;;;;;3.75;2.50;;;;;;;20.15;46.12;99546.69;5069622;28;20032;-83
2022/05/22 18:50:25;;;;;;;6.93;3.13;;;;;;;20.08;46.55;99546.44;5081361;28;20469;-85
2022/05/22 18:52:51;;;;;;;4.68;2.85;;;;;;;20.09;46.82;99542.34;5089321;28;20483;-85
2022/05/22 18:55:17;;;;;;;6.07;3.15;;;;;;;20.06;46.53;99544.13;5088662;28;20043;-85
2022/05/22 18:57:44;;;;;;;7.72;3.28;;;;;;;20.00;46.50;99541.34;5071844;28;20044;-84
2022/05/22 19:00:19;;;;;;;5.90;3.08;;;;;;;19.91;46.68;99550.06;5087940;28;20068;-85
2022/05/22 19:02:44;;;;;;;5.97;2.95;;;;;;;19.86;46.60;99559.25;5088092;28;20032;-85
2022/05/22 19:05:10;;;;;;;5.13;2.90;;;;;;;19.80;46.96;99549.28;5087570;28;20411;-85
2022/05/22 19:07:36;;;;;;;4.45;2.78;;;;;;;19.70;46.74;99556.44;5093151;28;20044;-84
2022/05/22 19:10:01;;;;;;;6.53;3.05;;;;;;;19.65;47.55;99558.00;5083989;28;20036;-84
2022/05/22 19:12:32;;;;;;;5.57;2.63;;;;;;;19.53;46.97;99571.25;5092048;28;20055;-85
2022/05/22 19:15:01;;;;;;;4.35;2.65;;;;;;;19.50;47.53;99571.53;5080692;28;20119;-84
2022/05/22 19:17:30;;;;;;;6.63;3.38;;;;;;;19.51;48.04;99568.22;5074300;28;20032;-84
2022/05/22 19:19:56;;;;;;;3.88;2.85;;;;;;;19.36;47.96;99578.91;5067133;28;20036;-84
2022/05/22 19:22:24;;;;;;;5.90;2.80;;;;;;;19.29;48.01;99573.00;5064081;28;20036;-84
2022/05/22 19:24:51;;;;;;;5.80;3.00;;;;;;;19.31;48.42;99578.88;5081396;28;20477;-84
2022/05/22 19:27:19;;;;;;;5.20;2.53;;;;;;;19.31;48.66;99576.84;5082300;28;20039;-84
2022/05/22 19:29:46;;;;;;;4.20;2.80;;;;;;;19.30;48.83;99574.53;5082228;28;20097;-84
2022/05/22 19:32:17;;;;;;;4.65;2.70;;;;;;;19.18;48.65;99573.72;5097247;28;20427;-84
2022/05/22 19:34:47;;;;;;;5.00;2.70;;;;;;;19.17;48.71;99575.00;5077412;28;20111;-84
2022/05/22 19:37:14;;;;;;;5.80;2.90;;;;;;;19.23;48.79;99575.78;5071176;28;20047;-84
2022/05/22 19:39:41;;;;;;;4.07;2.42;;;;;;;19.15;48.63;99576.78;5091624;28;20387;-84
2022/05/22 19:44:55;;;;;;;5.25;3.08;;;;;;;19.09;48.25;99582.38;5096950;28;20036;-84
2022/05/22 19:47:23;;;;;;;4.63;2.67;;;;;;;19.07;48.92;99577.28;5080129;28;20068;-82
2022/05/22 19:49:55;;;;;;;5.97;2.97;;;;;;;19.09;48.82;99576.78;5048576;28;20615;-83
2022/05/22 19:52:23;;;;;;;4.28;2.92;;;;;;;19.02;48.30;99571.63;5042558;28;20124;-82
2022/05/22 20:00:27;;;;;;;5.63;2.90;;;;;;;18.95;48.69;99572.13;5076163;28;20036;-83
2022/05/22 20:02:54;;;;;;;4.65;3.15;;;;;;;18.95;48.94;99572.13;5083137;28;20551;-82
2022/05/22 20:05:19;;;;;;;6.07;3.13;;;;;;;18.91;49.22;99571.63;5072098;28;20024;-83
2022/05/22 20:07:47;;;;;;;5.43;3.13;;;;;;;18.86;48.82;99575.16;5070510;28;20894;-83
2022/05/22 20:10:17;;;;;;;5.80;3.25;;;;;;;18.78;48.25;99574.09;5071335;28;20052;-83
2022/05/22 20:12:47;;;;;;;4.95;2.80;;;;;;;18.78;49.06;99565.69;5070142;28;20033;-83
2022/05/22 20:15:13;;;;;;;6.15;3.10;;;;;;;18.81;49.46;99567.47;5072512;28;20040;-82
2022/05/22 20:17:40;;;;;;;4.95;2.92;;;;;;;18.77;51.53;99555.72;5052126;28;20056;-83